»·PEaware :: DAL2596 KPDX-KLAX

DAL2596 :: KPDX-KLAX

FLIGHT INFORMATION

Flight Status: Arrived
Operator:
Delta Air Lines
More flights by this operator :: More flights under this callsign
Pilot: Matthew M. (8235)
Aircraft: BOEING 737-200
(B732)
More flights by this aircraft type
Origin: KPDX Portland Intl
United States
Destination: KLAX Los Angeles Intl
United States
More flights between these airports :: More routes between these airports
Route: +HRMNS5 HRMNS J189 LMT J189 LIN BURGL IRNMN1
File this flight plan on PilotEdge
Remarks: PBN / A1B2 DOF / 180119 REG / N318DL EET / KZOA0041 KZLA0135 OPR / DAL
Altitude:
(Current/Filed)
29,000ft
Speed:
(Current/Filed)
435kts
Departed: 19-Jan-18 10:48 AM
Arrived: 19-Jan-18 01:13 PM
Distance/Time
Traveled:
725nm/2:25
Distance/Time
To Go:
Arrived

Flight Plot

Page will automatically refresh every two minutes.

Flight plan parsing failed; only flown route is shown


Map Options




Map Legend


Flown Route
Filed Route
Departure Airport
Arrival Airport
Navaid (VOR, NDB)
Fix

Horizontal Profiles

Position Reports

Time Latitude Longitude Heading Altitude Ground
Speed
19-Jan-18 10:21 45.592101 -122.596463 196 25ft 0kts
19-Jan-18 10:22 45.592101 -122.596463 196 25ft 0kts
19-Jan-18 10:23 45.592101 -122.596463 196 25ft 0kts
19-Jan-18 10:24 45.592101 -122.596463 196 25ft 0kts
19-Jan-18 10:25 45.592101 -122.596463 196 25ft 0kts
19-Jan-18 10:26 45.592101 -122.596463 196 25ft 0kts
19-Jan-18 10:27 45.592101 -122.596463 196 25ft 0kts
19-Jan-18 10:28 45.592101 -122.596463 196 25ft 0kts
19-Jan-18 10:29 45.592101 -122.596463 196 25ft 0kts
19-Jan-18 10:30 45.592101 -122.596463 196 25ft 0kts
19-Jan-18 10:31 45.592101 -122.596463 196 25ft 0kts
19-Jan-18 10:32 45.592101 -122.596463 196 25ft 0kts
19-Jan-18 10:33 45.592101 -122.596463 196 25ft 0kts
19-Jan-18 10:34 45.592101 -122.596463 196 25ft 0kts
19-Jan-18 10:35 45.592101 -122.596463 196 25ft 0kts
19-Jan-18 10:36 45.592101 -122.596463 196 25ft 0kts
19-Jan-18 10:37 45.592101 -122.596463 196 25ft 0kts
19-Jan-18 10:38 45.592101 -122.596463 196 25ft 0kts
19-Jan-18 10:39 45.592101 -122.596463 196 25ft 0kts
19-Jan-18 10:40 45.592101 -122.596463 196 25ft 0kts
19-Jan-18 10:41 45.592101 -122.596463 196 25ft 0kts
19-Jan-18 10:42 45.592101 -122.596463 196 25ft 0kts
19-Jan-18 10:43 45.592097 -122.596465 196 25ft 0kts
19-Jan-18 10:44 45.592598 -122.596248 196 25ft 2kts
19-Jan-18 10:45 45.593003 -122.596364 118 25ft 0kts
19-Jan-18 10:46 45.593003 -122.596364 118 25ft 0kts
19-Jan-18 10:47 45.593003 -122.596363 118 25ft 0kts
19-Jan-18 10:48 45.592125 -122.593833 96 25ft 18kts
19-Jan-18 10:49 45.590254 -122.587189 119 25ft 23kts
19-Jan-18 10:50 45.586847 -122.578418 118 25ft 28kts
19-Jan-18 10:51 45.583288 -122.569259 117 25ft 24kts
19-Jan-18 10:52 45.582702 -122.567405 78 25ft 0kts
19-Jan-18 10:53 45.582702 -122.567405 78 25ft 0kts
19-Jan-18 10:54 45.584465 -122.569100 297 25ft 45kts
19-Jan-18 10:55 45.604798 -122.618530 297 1211ft 208kts
19-Jan-18 10:56 45.627269 -122.694085 295 4691ft 231kts
19-Jan-18 10:57 45.661796 -122.781191 296 7515ft 266kts
19-Jan-18 10:58 45.658526 -122.877101 254 10420ft 265kts
19-Jan-18 10:59 45.599582 -122.914712 170 12503ft 305kts
19-Jan-18 11:00 45.517919 -122.871030 154 14281ft 340kts
19-Jan-18 11:01 45.441334 -122.806916 153 16215ft 351kts
19-Jan-18 11:02 45.360462 -122.738032 152 17996ft 361kts
19-Jan-18 11:03 45.276529 -122.666571 152 19599ft 370kts
19-Jan-18 11:04 45.194432 -122.596888 152 20959ft 378kts
19-Jan-18 11:05 45.106430 -122.522449 152 22235ft 385kts
19-Jan-18 11:06 45.020577 -122.450050 153 23292ft 393kts
19-Jan-18 11:07 44.925616 -122.387222 171 24294ft 389kts
19-Jan-18 11:08 44.831987 -122.361546 173 25169ft 393kts
19-Jan-18 11:09 44.730286 -122.336081 174 26016ft 397kts
19-Jan-18 11:10 44.628225 -122.310916 174 26743ft 401kts
19-Jan-18 11:11 44.524070 -122.285363 174 27407ft 405kts
19-Jan-18 11:12 44.417040 -122.259203 174 28012ft 409kts
19-Jan-18 11:13 44.315608 -122.234503 174 28504ft 412kts
19-Jan-18 11:14 44.209218 -122.208685 174 28982ft 415kts
19-Jan-18 11:15 44.098768 -122.182000 174 29045ft 427kts
19-Jan-18 11:16 43.985240 -122.154660 174 29036ft 438kts
19-Jan-18 11:17 43.872069 -122.127506 174 29040ft 446kts
19-Jan-18 11:18 43.759629 -122.100633 174 29038ft 453kts
19-Jan-18 11:19 43.643736 -122.073042 174 29038ft 458kts
19-Jan-18 11:20 43.522494 -122.044295 174 29037ft 462kts
19-Jan-18 11:21 43.403927 -122.016293 174 29062ft 464kts
19-Jan-18 11:22 43.280614 -121.987292 174 29077ft 466kts
19-Jan-18 11:23 43.163946 -121.959962 174 29085ft 468kts
19-Jan-18 11:24 43.039549 -121.930938 174 29076ft 470kts
19-Jan-18 11:25 42.921003 -121.903302 175 29068ft 459kts
19-Jan-18 11:26 42.803193 -121.876084 176 29074ft 448kts
19-Jan-18 11:27 42.688429 -121.849638 176 29074ft 441kts
19-Jan-18 11:28 42.574066 -121.823371 176 29074ft 435kts
19-Jan-18 11:29 42.465312 -121.798480 176 29073ft 430kts
19-Jan-18 11:30 42.352601 -121.772775 176 29072ft 427kts
19-Jan-18 11:31 42.242610 -121.747780 176 29072ft 424kts
19-Jan-18 11:32 42.134239 -121.724013 177 29072ft 420kts
19-Jan-18 11:33 42.023020 -121.703018 178 29071ft 418kts
19-Jan-18 11:34 41.914408 -121.682647 177 29070ft 417kts
19-Jan-18 11:35 41.812563 -121.663617 178 29078ft 416kts
19-Jan-18 11:36 41.705762 -121.643716 178 29077ft 416kts
19-Jan-18 11:37 41.596431 -121.623420 177 29078ft 419kts
19-Jan-18 11:38 41.487953 -121.603344 177 29077ft 421kts
19-Jan-18 11:39 41.376138 -121.582718 177 29108ft 423kts
19-Jan-18 11:40 41.270117 -121.563211 178 30218ft 408kts
19-Jan-18 11:41 41.163979 -121.543779 178 30629ft 409kts
19-Jan-18 11:42 41.057965 -121.524340 179 31264ft 404kts
19-Jan-18 11:43 40.952220 -121.505056 180 32123ft 391kts
19-Jan-18 11:44 40.856511 -121.487794 180 32353ft 393kts
19-Jan-18 11:45 40.754967 -121.469434 180 32646ft 394kts
19-Jan-18 11:46 40.652243 -121.450900 180 32887ft 395kts
19-Jan-18 11:47 40.548992 -121.432349 180 33108ft 396kts
19-Jan-18 11:48 40.445782 -121.413860 180 33190ft 399kts
19-Jan-18 11:49 40.340891 -121.395102 180 33183ft 404kts
19-Jan-18 11:50 40.234932 -121.376233 180 33170ft 407kts
19-Jan-18 11:51 40.126215 -121.356925 180 33167ft 410kts
19-Jan-18 11:52 40.023008 -121.338656 181 33170ft 410kts
19-Jan-18 11:53 39.916735 -121.319905 181 33177ft 409kts
19-Jan-18 11:54 39.813406 -121.301691 181 33187ft 395kts
19-Jan-18 11:55 39.712143 -121.283934 181 33189ft 384kts
19-Jan-18 11:56 39.613281 -121.266658 181 33177ft 375kts
19-Jan-18 11:57 39.516933 -121.249853 181 33153ft 368kts
19-Jan-18 11:58 39.422133 -121.233390 181 33148ft 364kts
19-Jan-18 11:59 39.326268 -121.216786 181 33141ft 364kts
19-Jan-18 12:00 39.231572 -121.200408 182 33140ft 364kts
19-Jan-18 12:01 39.136881 -121.184071 182 33146ft 363kts
19-Jan-18 12:02 39.042052 -121.167768 182 33155ft 362kts
19-Jan-18 12:03 38.945502 -121.151132 184 33164ft 360kts
19-Jan-18 12:04 38.854993 -121.135662 185 33179ft 357kts
19-Jan-18 12:05 38.765151 -121.120390 184 33181ft 356kts
19-Jan-18 12:06 38.675800 -121.105187 185 33183ft 354kts
19-Jan-18 12:07 38.587020 -121.090115 185 33181ft 353kts
19-Jan-18 12:08 38.497893 -121.075026 184 33175ft 352kts
19-Jan-18 12:09 38.406230 -121.059551 185 33171ft 351kts
19-Jan-18 12:10 38.315123 -121.044201 185 33167ft 349kts
19-Jan-18 12:11 38.221808 -121.028519 185 33164ft 348kts
19-Jan-18 12:12 38.131788 -121.013422 185 33168ft 346kts
19-Jan-18 12:13 38.041619 -120.990473 178 33171ft 357kts
19-Jan-18 12:14 37.949850 -120.955868 177 33163ft 357kts
19-Jan-18 12:15 37.862429 -120.922482 177 33192ft 357kts
19-Jan-18 12:16 37.772870 -120.888316 177 33190ft 359kts
19-Jan-18 12:17 37.682403 -120.853871 177 33191ft 360kts
19-Jan-18 12:18 37.591368 -120.819274 177 33185ft 362kts
19-Jan-18 12:19 37.497862 -120.783832 177 33187ft 362kts
19-Jan-18 12:20 37.411100 -120.751044 177 33180ft 363kts
19-Jan-18 12:21 37.320054 -120.716706 177 33182ft 362kts
19-Jan-18 12:22 37.227095 -120.681769 177 33178ft 362kts
19-Jan-18 12:23 37.135810 -120.647521 177 33174ft 362kts
19-Jan-18 12:24 37.042438 -120.612619 176 33170ft 362kts
19-Jan-18 12:25 36.950867 -120.578470 175 33170ft 364kts
19-Jan-18 12:26 36.860529 -120.544812 175 33191ft 367kts
19-Jan-18 12:27 36.770512 -120.511383 175 33193ft 371kts
19-Jan-18 12:28 36.674622 -120.475867 175 33195ft 375kts
19-Jan-18 12:29 36.579213 -120.440602 175 33191ft 377kts
19-Jan-18 12:30 36.501982 -120.412129 175 33194ft 379kts
19-Jan-18 12:31 36.389379 -120.370744 175 33192ft 381kts
19-Jan-18 12:32 36.295154 -120.336198 175 33173ft 382kts
19-Jan-18 12:33 36.215874 -120.307183 176 33165ft 380kts
19-Jan-18 12:34 36.117390 -120.271287 175 33172ft 385kts
19-Jan-18 12:35 36.004213 -120.230104 175 33173ft 394kts
19-Jan-18 12:36 35.921751 -120.200164 175 33164ft 399kts
19-Jan-18 12:37 35.828032 -120.166319 174 32573ft 419kts
19-Jan-18 12:38 35.725811 -120.129309 174 32597ft 422kts
19-Jan-18 12:39 35.621384 -120.072963 161 32201ft 432kts
19-Jan-18 12:40 35.523633 -120.000255 160 30376ft 426kts
19-Jan-18 12:41 35.427018 -119.927659 159 29156ft 409kts
19-Jan-18 12:42 35.340474 -119.862658 160 29148ft 369kts
19-Jan-18 12:43 35.260412 -119.796487 157 29124ft 344kts
19-Jan-18 12:44 35.179347 -119.721931 152 26109ft 403kts
19-Jan-18 12:45 35.096407 -119.644535 152 26129ft 407kts
19-Jan-18 12:46 35.008477 -119.562790 152 26140ft 413kts
19-Jan-18 12:47 34.923331 -119.483863 151 26106ft 419kts
19-Jan-18 12:48 34.840727 -119.409605 152 26112ft 423kts
19-Jan-18 12:49 34.753785 -119.331817 153 24593ft 394kts
19-Jan-18 12:50 34.675870 -119.263661 152 22568ft 380kts
19-Jan-18 12:51 34.597274 -119.195619 152 20615ft 370kts
19-Jan-18 12:52 34.521195 -119.128793 152 20055ft 320kts
19-Jan-18 12:53 34.456820 -119.072117 152 18580ft 321kts
19-Jan-18 12:54 34.387861 -119.012072 152 17059ft 308kts
19-Jan-18 12:55 34.321663 -118.953846 150 15357ft 308kts
19-Jan-18 12:56 34.258667 -118.896699 150 13895ft 299kts
19-Jan-18 12:57 34.196685 -118.839794 149 12432ft 292kts
19-Jan-18 12:58 34.138323 -118.781013 145 11109ft 283kts
19-Jan-18 12:59 34.083845 -118.722329 144 9995ft 270kts
19-Jan-18 13:00 34.036244 -118.666700 120 9107ft 261kts
19-Jan-18 13:01 34.024488 -118.593846 104 8737ft 238kts
19-Jan-18 13:02 34.016938 -118.524008 103 8109ft 219kts
19-Jan-18 13:03 34.011340 -118.466053 104 8075ft 174kts
19-Jan-18 13:04 34.018254 -118.405206 87 8242ft 202kts
19-Jan-18 13:05 34.029000 -118.337708 87 6147ft 236kts
19-Jan-18 13:06 34.035556 -118.278304 84 6045ft 218kts
19-Jan-18 13:07 34.046879 -118.211043 82 5118ft 215kts
19-Jan-18 13:08 34.056439 -118.147012 78 5104ft 202kts
19-Jan-18 13:09 34.060716 -118.081045 82 5144ft 212kts
19-Jan-18 13:10 34.035933 -118.029332 186 5162ft 218kts
19-Jan-18 13:11 33.982725 -118.048503 201 5131ft 222kts
19-Jan-18 13:12 33.957192 -118.096380 277 4420ft 213kts
19-Jan-18 13:13 33.958866 -118.155195 265 4078ft 161kts
19-Jan-18 13:14 33.954733 -118.211553 261 3017ft 182kts
19-Jan-18 13:15 33.949711 -118.263203 261 2133ft 135kts
19-Jan-18 13:16 33.945612 -118.303431 262 1251ft 133kts
19-Jan-18 13:17 33.941606 -118.342384 261 797ft 133kts
19-Jan-18 13:18 33.937109 -118.385158 261 120ft 130kts
19-Jan-18 13:19 33.936172 -118.403426 288 121ft 0kts
19-Jan-18 13:20 33.936140 -118.405334 262 124ft 23kts
19-Jan-18 13:21 33.937764 -118.409115 358 127ft 6kts
19-Jan-18 13:22 33.938822 -118.407491 82 124ft 14kts
19-Jan-18 13:23 33.940223 -118.404955 83 123ft 6kts

Navigation Log

Ident Type
Flight plan parsing failed, navigation log unavailable